createdAt,value
2023-04-15T00:00:08.497Z,20.11
2023-04-15T00:03:02.575Z,20.09
2023-04-15T00:05:31.866Z,20.08
2023-04-15T00:08:00.052Z,20.07
2023-04-15T00:10:28.217Z,20.05
2023-04-15T00:12:56.178Z,20.04
2023-04-15T00:15:24.381Z,20.04
2023-04-15T00:17:52.691Z,20.04
2023-04-15T00:20:20.957Z,20.03
2023-04-15T00:22:49.293Z,20.03
2023-04-15T00:25:17.465Z,20.01
2023-04-15T00:27:45.530Z,20.01
2023-04-15T00:30:16.273Z,20.00
2023-04-15T00:32:45.013Z,20.00
2023-04-15T00:35:13.236Z,19.98
2023-04-15T00:37:41.420Z,19.96
2023-04-15T00:40:12.517Z,19.96
2023-04-15T00:42:40.824Z,19.93
2023-04-15T00:45:09.386Z,19.92
2023-04-15T00:47:37.919Z,19.93
2023-04-15T00:50:06.926Z,19.92
2023-04-15T00:52:35.171Z,19.92
2023-04-15T00:55:04.921Z,19.91
2023-04-15T00:57:33.458Z,19.90
2023-04-15T01:00:01.836Z,19.90
2023-04-15T01:02:30.044Z,19.89
2023-04-15T01:04:58.422Z,19.88
2023-04-15T01:07:26.413Z,19.87
2023-04-15T01:09:54.807Z,19.87
2023-04-15T01:12:22.910Z,19.85
2023-04-15T01:14:51.444Z,19.85
2023-04-15T01:17:19.688Z,19.84
2023-04-15T01:19:47.865Z,19.83
2023-04-15T01:22:16.277Z,19.83
2023-04-15T01:24:49.435Z,19.82
2023-04-15T01:27:17.809Z,19.81
2023-04-15T01:29:45.739Z,19.81
2023-04-15T01:32:13.671Z,19.80
2023-04-15T01:34:41.743Z,19.79
2023-04-15T01:37:09.774Z,19.78
2023-04-15T01:39:37.951Z,19.77
2023-04-15T01:42:06.025Z,19.76
2023-04-15T01:44:33.980Z,19.76
2023-04-15T01:47:02.190Z,19.75
2023-04-15T01:49:30.446Z,19.74
2023-04-15T01:51:58.361Z,19.73
2023-04-15T01:54:27.607Z,19.73
2023-04-15T01:56:56.916Z,19.73
2023-04-15T01:59:25.724Z,19.72
2023-04-15T02:01:54.007Z,19.72
2023-04-15T02:04:21.941Z,19.71
2023-04-15T02:06:50.116Z,19.70
2023-04-15T02:09:18.230Z,19.69
2023-04-15T02:11:47.194Z,19.69
2023-04-15T02:14:15.264Z,19.68
2023-04-15T02:16:43.245Z,19.68
2023-04-15T02:19:11.705Z,19.67
2023-04-15T02:21:40.096Z,19.66
2023-04-15T02:24:08.164Z,19.65
2023-04-15T02:26:36.443Z,19.64
2023-04-15T02:29:04.519Z,19.64
2023-04-15T02:31:37.200Z,19.63
2023-04-15T02:34:05.675Z,19.63
2023-04-15T02:36:34.868Z,19.62
2023-04-15T02:39:04.414Z,19.61
2023-04-15T02:41:32.657Z,19.61
2023-04-15T02:44:00.830Z,19.60
2023-04-15T02:46:29.588Z,19.59
2023-04-15T02:49:00.220Z,19.58
2023-04-15T02:51:31.380Z,19.57
2023-04-15T02:53:59.467Z,19.56
2023-04-15T02:56:27.847Z,19.55
2023-04-15T02:58:56.955Z,19.54
2023-04-15T03:01:25.013Z,19.54
2023-04-15T03:03:53.385Z,19.53
2023-04-15T03:06:21.677Z,19.52
2023-04-15T03:08:51.772Z,19.51
2023-04-15T03:11:20.365Z,19.50
2023-04-15T03:13:48.552Z,19.50
2023-04-15T03:16:36.982Z,19.49
2023-04-15T03:19:05.257Z,19.48
2023-04-15T03:21:33.964Z,19.47
2023-04-15T03:24:02.425Z,19.46
2023-04-15T03:26:31.757Z,19.46
2023-04-15T03:29:02.573Z,19.45
2023-04-15T03:31:31.164Z,19.45
2023-04-15T03:33:59.237Z,19.44
2023-04-15T03:36:29.643Z,19.43
2023-04-15T03:38:58.237Z,19.42
2023-04-15T03:41:26.813Z,19.41
2023-04-15T03:43:55.089Z,19.41
2023-04-15T03:46:23.015Z,19.37
2023-04-15T03:48:51.343Z,19.40
2023-04-15T03:51:19.416Z,19.39
2023-04-15T03:53:47.482Z,19.38
2023-04-15T03:56:16.074Z,19.38
2023-04-15T03:58:44.134Z,19.37
2023-04-15T04:01:12.290Z,19.37
2023-04-15T04:03:41.132Z,19.36
2023-04-15T04:06:09.398Z,19.35
2023-04-15T04:08:37.451Z,19.34
2023-04-15T04:11:05.845Z,19.34
2023-04-15T04:13:33.914Z,19.33
2023-04-15T04:16:02.146Z,19.32
2023-04-15T04:18:33.741Z,19.32
2023-04-15T04:21:01.718Z,19.31
2023-04-15T04:23:29.982Z,19.30
2023-04-15T04:25:57.855Z,19.29
2023-04-15T04:28:26.016Z,19.28
2023-04-15T04:30:54.087Z,19.28
2023-04-15T04:33:22.369Z,19.28
2023-04-15T04:35:50.217Z,19.28
2023-04-15T04:38:18.197Z,19.27
2023-04-15T04:40:46.880Z,19.27
2023-04-15T04:43:16.180Z,19.27
2023-04-15T04:45:44.263Z,19.27
2023-04-15T04:48:12.539Z,19.26
2023-04-15T04:50:40.608Z,19.26
2023-04-15T04:53:09.188Z,19.25
2023-04-15T04:55:37.365Z,19.25
2023-04-15T04:58:05.251Z,19.25
2023-04-15T05:00:33.818Z,19.25
2023-04-15T05:03:02.070Z,19.25
2023-04-15T05:05:30.096Z,19.25
2023-04-15T05:07:58.241Z,19.25
2023-04-15T05:10:26.197Z,19.24
2023-04-15T05:12:54.476Z,19.25
2023-04-15T05:15:22.405Z,19.24
2023-04-15T05:17:50.372Z,19.24
2023-04-15T05:20:18.489Z,19.24
2023-04-15T05:22:46.560Z,19.24
2023-04-15T05:25:14.451Z,19.25
2023-04-15T05:27:42.705Z,19.25
2023-04-15T05:30:13.406Z,19.26
2023-04-15T05:32:41.897Z,19.27
2023-04-15T05:35:10.003Z,19.27
2023-04-15T05:37:38.081Z,19.28
2023-04-15T05:40:06.969Z,19.30
2023-04-15T05:42:35.346Z,19.30
2023-04-15T05:45:05.765Z,19.31
2023-04-15T05:47:33.880Z,19.32
2023-04-15T05:50:02.111Z,19.33
2023-04-15T05:52:31.110Z,19.34
2023-04-15T05:54:59.071Z,19.36
2023-04-15T05:57:26.992Z,19.36
2023-04-15T05:59:57.384Z,19.36
2023-04-15T06:02:25.512Z,19.38
2023-04-15T06:04:54.006Z,19.39
2023-04-15T06:07:22.216Z,19.39
2023-04-15T06:09:50.582Z,19.40
2023-04-15T06:12:18.554Z,19.40
2023-04-15T06:14:46.651Z,19.40
2023-04-15T06:17:15.205Z,19.40
2023-04-15T06:19:43.280Z,19.40
2023-04-15T06:22:11.344Z,19.40
2023-04-15T06:24:39.364Z,19.41
2023-04-15T06:27:07.337Z,19.42
2023-04-15T06:29:35.876Z,19.43
2023-04-15T06:32:03.948Z,19.46
2023-04-15T06:34:31.999Z,19.49
2023-04-15T06:37:00.977Z,19.52
2023-04-15T06:39:29.185Z,19.54
2023-04-15T06:41:57.637Z,19.56
2023-04-15T06:44:26.013Z,19.57
2023-04-15T06:46:54.131Z,19.58
2023-04-15T06:49:22.483Z,19.60
2023-04-15T06:51:51.457Z,19.61
2023-04-15T06:54:19.462Z,19.65
2023-04-15T06:56:48.150Z,19.68
2023-04-15T06:59:16.424Z,19.70
2023-04-15T07:01:44.609Z,19.73
2023-04-15T07:04:13.087Z,19.74
2023-04-15T07:06:42.061Z,19.75
2023-04-15T07:09:10.778Z,19.75
2023-04-15T07:11:38.924Z,19.75
2023-04-15T07:14:07.625Z,19.74
2023-04-15T07:16:35.591Z,19.75
2023-04-15T07:19:04.045Z,19.76
2023-04-15T07:21:32.765Z,19.81
2023-04-15T07:24:00.726Z,19.85
2023-04-15T07:26:28.891Z,19.89
2023-04-15T07:28:56.975Z,19.94
2023-04-15T07:31:25.385Z,19.99
2023-04-15T07:33:53.621Z,20.05
2023-04-15T07:36:21.585Z,20.12
2023-04-15T07:38:49.566Z,20.18
2023-04-15T07:41:17.632Z,20.25
2023-04-15T07:43:45.820Z,20.30
2023-04-15T07:46:13.882Z,20.35
2023-04-15T07:48:42.877Z,20.39
2023-04-15T07:51:11.152Z,20.42
2023-04-15T07:53:38.994Z,20.44
2023-04-15T07:56:07.641Z,20.47
2023-04-15T07:58:35.887Z,20.49
2023-04-15T08:01:05.085Z,20.51
2023-04-15T08:03:34.042Z,20.53
2023-04-15T08:06:02.658Z,20.53
2023-04-15T08:08:31.361Z,20.54
2023-04-15T08:10:59.514Z,20.55
2023-04-15T08:13:28.203Z,20.57
2023-04-15T08:16:18.689Z,20.58
2023-04-15T08:18:50.550Z,20.60
2023-04-15T08:21:19.550Z,20.61
2023-04-15T08:23:48.655Z,20.63
2023-04-15T08:26:17.849Z,20.64
2023-04-15T08:28:46.118Z,20.66
2023-04-15T08:31:15.164Z,20.67
2023-04-15T08:33:43.341Z,20.69
2023-04-15T08:36:11.777Z,20.68
2023-04-15T08:38:39.850Z,20.70
2023-04-15T08:41:13.244Z,20.71
2023-04-15T08:43:48.346Z,20.73
2023-04-15T08:46:16.916Z,20.74
2023-04-15T08:48:45.127Z,20.77
2023-04-15T08:51:16.387Z,20.79
2023-04-15T08:53:46.619Z,20.81
2023-04-15T08:56:16.034Z,20.84
2023-04-15T08:58:44.990Z,20.89
2023-04-15T09:01:13.247Z,20.95
2023-04-15T09:03:42.190Z,21.01
2023-04-15T09:06:11.052Z,21.06
2023-04-15T09:08:39.235Z,21.09
2023-04-15T09:11:07.305Z,21.11
2023-04-15T09:13:35.370Z,21.13
2023-04-15T09:16:04.593Z,21.16
2023-04-15T09:18:33.993Z,21.19
2023-04-15T09:21:12.773Z,21.22
2023-04-15T09:23:42.586Z,21.26
2023-04-15T09:26:10.791Z,21.31
2023-04-15T09:28:42.848Z,21.37
2023-04-15T09:31:11.365Z,21.43
2023-04-15T09:33:55.169Z,21.49
2023-04-15T09:36:25.119Z,21.54
2023-04-15T09:38:57.585Z,21.58
2023-04-15T09:41:26.763Z,21.63
2023-04-15T09:43:54.941Z,21.67
2023-04-15T09:46:41.336Z,21.71
2023-04-15T09:49:10.482Z,21.75
2023-04-15T09:51:39.009Z,21.79
2023-04-15T09:54:07.485Z,21.81
2023-04-15T09:56:38.584Z,21.86
2023-04-15T09:59:07.125Z,21.90
2023-04-15T10:01:36.336Z,21.95
2023-04-15T10:04:05.316Z,22.00
2023-04-15T10:06:33.615Z,22.03
2023-04-15T10:09:01.720Z,22.06
2023-04-15T10:11:31.563Z,22.08
2023-04-15T10:14:00.408Z,22.10
2023-04-15T10:16:29.055Z,22.14
2023-04-15T10:18:57.441Z,22.18
2023-04-15T10:21:25.599Z,22.23
2023-04-15T10:23:53.606Z,22.27
2023-04-15T10:26:21.546Z,22.32
2023-04-15T10:28:49.722Z,22.37
2023-04-15T10:31:18.767Z,22.42
2023-04-15T10:33:47.600Z,22.47
2023-04-15T10:36:16.188Z,22.51
2023-04-15T10:38:45.553Z,22.55
2023-04-15T10:41:19.951Z,22.58
2023-04-15T10:43:56.208Z,22.62
2023-04-15T10:46:37.021Z,22.66
2023-04-15T10:49:11.096Z,22.70
2023-04-15T10:51:43.490Z,22.74
2023-04-15T10:54:31.163Z,22.78
2023-04-15T10:57:02.934Z,22.83
2023-04-15T10:59:51.795Z,22.86
2023-04-15T11:02:19.991Z,22.88
2023-04-15T11:04:54.347Z,22.91
2023-04-15T11:07:48.679Z,22.96
2023-04-15T11:10:26.164Z,22.98
2023-04-15T11:12:58.464Z,23.02
2023-04-15T11:15:30.589Z,23.04
2023-04-15T11:17:59.784Z,23.07
2023-04-15T11:20:27.966Z,23.10
2023-04-15T11:23:13.874Z,23.12
2023-04-15T11:25:43.512Z,23.15
2023-04-15T11:28:12.146Z,23.18
2023-04-15T11:30:40.621Z,23.18
2023-04-15T11:33:09.976Z,23.19
2023-04-15T11:35:38.195Z,23.19
2023-04-15T11:38:11.388Z,23.18
2023-04-15T11:40:39.991Z,23.17
2023-04-15T11:43:08.769Z,23.18
2023-04-15T11:45:37.841Z,23.18
2023-04-15T11:48:07.888Z,23.20
2023-04-15T11:50:36.845Z,23.22
2023-04-15T11:53:08.140Z,23.23
2023-04-15T11:55:47.358Z,23.24
2023-04-15T11:58:23.420Z,23.24
2023-04-15T12:00:54.986Z,23.25
2023-04-15T12:03:24.287Z,23.24
2023-04-15T12:06:11.792Z,23.23
2023-04-15T12:08:59.233Z,23.21
2023-04-15T12:11:27.114Z,23.22
2023-04-15T12:14:09.180Z,23.22
2023-04-15T12:16:48.669Z,23.23
2023-04-15T12:19:19.770Z,23.24
2023-04-15T12:21:48.994Z,23.25
2023-04-15T12:24:21.330Z,23.25
2023-04-15T12:26:54.059Z,23.26
2023-04-15T12:29:25.967Z,23.26
2023-04-15T12:31:56.228Z,23.26
2023-04-15T12:34:34.770Z,23.26
2023-04-15T12:37:04.313Z,23.26
2023-04-15T12:39:34.990Z,23.26
2023-04-15T12:42:04.565Z,23.26
2023-04-15T12:44:33.337Z,23.25
2023-04-15T12:47:01.559Z,23.25
2023-04-15T12:49:32.582Z,23.25
2023-04-15T12:52:01.667Z,23.26
2023-04-15T12:54:30.274Z,23.26
2023-04-15T12:56:58.762Z,23.26
2023-04-15T12:59:26.919Z,23.25
2023-04-15T13:01:55.150Z,23.26
2023-04-15T13:04:23.508Z,23.26
2023-04-15T13:06:52.058Z,23.25
2023-04-15T13:09:20.841Z,23.24
2023-04-15T13:11:49.517Z,23.25
2023-04-15T13:14:17.900Z,23.24
2023-04-15T13:16:45.833Z,23.24
2023-04-15T13:19:14.128Z,23.23
2023-04-15T13:21:42.111Z,23.23
2023-04-15T13:24:10.185Z,23.22
2023-04-15T13:26:38.357Z,23.21
2023-04-15T13:29:06.951Z,23.20
2023-04-15T13:31:35.058Z,23.19
2023-04-15T13:34:03.410Z,23.18
2023-04-15T13:36:31.869Z,23.17
2023-04-15T13:39:00.253Z,23.17
2023-04-15T13:41:28.359Z,23.16
2023-04-15T13:43:57.626Z,23.16
2023-04-15T13:46:26.317Z,23.15
2023-04-15T13:48:54.418Z,23.15
2023-04-15T13:51:22.452Z,23.14
2023-04-15T13:53:50.641Z,23.14
2023-04-15T13:56:18.710Z,23.13
2023-04-15T13:58:46.794Z,23.13
2023-04-15T14:01:14.796Z,23.11
2023-04-15T14:03:43.196Z,23.10
2023-04-15T14:06:11.510Z,23.09
2023-04-15T14:08:39.712Z,23.08
2023-04-15T14:11:07.960Z,23.07
2023-04-15T14:13:36.760Z,23.06
2023-04-15T14:16:05.322Z,23.05
2023-04-15T14:18:33.494Z,23.04
2023-04-15T14:21:01.574Z,23.02
2023-04-15T14:23:29.655Z,23.01
2023-04-15T14:25:57.812Z,23.01
2023-04-15T14:28:25.984Z,22.99
2023-04-15T14:30:53.975Z,22.98
2023-04-15T14:33:22.135Z,22.98
2023-04-15T14:35:51.325Z,22.97
2023-04-15T14:38:19.408Z,22.95
2023-04-15T14:40:47.591Z,22.95
2023-04-15T14:43:15.504Z,22.93
2023-04-15T14:45:44.665Z,22.92
2023-04-15T14:48:13.805Z,22.91
2023-04-15T14:50:42.014Z,22.90
2023-04-15T14:53:09.905Z,22.89
2023-04-15T14:55:38.171Z,22.88
2023-04-15T14:58:08.350Z,22.88
2023-04-15T15:00:39.335Z,22.87
2023-04-15T15:03:12.933Z,22.85
2023-04-15T15:05:45.793Z,22.85
2023-04-15T15:08:14.080Z,22.84
2023-04-15T15:10:49.247Z,22.83
2023-04-15T15:13:18.887Z,22.81
2023-04-15T15:15:49.513Z,22.80
2023-04-15T15:18:19.536Z,22.79
2023-04-15T15:20:48.068Z,22.77
2023-04-15T15:23:16.150Z,22.75
2023-04-15T15:25:44.650Z,22.74
2023-04-15T15:28:12.799Z,22.72
2023-04-15T15:30:40.759Z,22.69
2023-04-15T15:33:08.686Z,22.67
2023-04-15T15:35:36.677Z,22.66
2023-04-15T15:38:04.772Z,22.65
2023-04-15T15:40:32.847Z,22.63
2023-04-15T15:43:00.808Z,22.62
2023-04-15T15:45:28.823Z,22.61
2023-04-15T15:47:58.488Z,22.61
2023-04-15T15:50:26.880Z,22.61
2023-04-15T15:52:55.475Z,22.61
2023-04-15T15:55:25.367Z,22.60
2023-04-15T15:57:54.471Z,22.59
2023-04-15T16:00:23.596Z,22.59
2023-04-15T16:03:06.706Z,22.57
2023-04-15T16:05:36.322Z,22.56
2023-04-15T16:08:04.673Z,22.55
2023-04-15T16:10:32.750Z,22.54
2023-04-15T16:13:01.125Z,22.54
2023-04-15T16:15:29.194Z,22.54
2023-04-15T16:17:57.235Z,22.53
2023-04-15T16:20:25.247Z,22.52
2023-04-15T16:22:53.208Z,22.51
2023-04-15T16:25:21.481Z,22.50
2023-04-15T16:28:00.846Z,22.49
2023-04-15T16:30:31.449Z,22.47
2023-04-15T16:32:59.334Z,22.46
2023-04-15T16:35:27.490Z,22.45
2023-04-15T16:37:55.774Z,22.44
2023-04-15T16:40:24.044Z,22.43
2023-04-15T16:42:52.442Z,22.42
2023-04-15T16:45:20.489Z,22.41
2023-04-15T16:47:48.508Z,22.40
2023-04-15T16:50:16.544Z,22.39
2023-04-15T16:52:44.711Z,22.37
2023-04-15T16:55:12.805Z,22.36
2023-04-15T16:58:03.227Z,22.34
2023-04-15T17:00:29.005Z,22.32
2023-04-15T17:02:57.288Z,22.30
2023-04-15T17:05:27.587Z,22.30
2023-04-15T17:07:56.079Z,22.28
2023-04-15T17:10:24.160Z,22.26
2023-04-15T17:12:52.849Z,22.24
2023-04-15T17:15:21.073Z,22.23
2023-04-15T17:17:49.005Z,22.21
2023-04-15T17:20:20.127Z,22.19
2023-04-15T17:22:48.581Z,22.18
2023-04-15T17:25:16.677Z,22.16
2023-04-15T17:27:44.638Z,22.14
2023-04-15T17:30:12.619Z,22.13
2023-04-15T17:32:40.807Z,22.11
2023-04-15T17:35:09.687Z,22.09
2023-04-15T17:37:37.685Z,22.08
2023-04-15T17:40:08.789Z,22.07
2023-04-15T17:42:37.092Z,22.05
2023-04-15T17:45:05.685Z,22.03
2023-04-15T17:47:33.675Z,22.01
2023-04-15T17:50:01.727Z,22.00
2023-04-15T17:52:29.772Z,21.98
2023-04-15T17:54:57.944Z,21.97
2023-04-15T17:57:26.017Z,21.94
2023-04-15T17:59:54.083Z,21.93
2023-04-15T18:02:22.368Z,21.92
2023-04-15T18:04:50.931Z,21.91
2023-04-15T18:07:19.022Z,21.89
2023-04-15T18:09:47.705Z,21.88
2023-04-15T18:12:16.047Z,21.86
2023-04-15T18:14:44.264Z,21.84
2023-04-15T18:17:14.551Z,21.83
2023-04-15T18:19:43.550Z,21.82
2023-04-15T18:22:11.749Z,21.81
2023-04-15T18:24:40.023Z,21.79
2023-04-15T18:27:07.954Z,21.78
2023-04-15T18:29:36.741Z,21.77
2023-04-15T18:32:05.123Z,21.76
2023-04-15T18:34:33.341Z,21.75
2023-04-15T18:37:01.532Z,21.73
2023-04-15T18:39:29.585Z,21.72
2023-04-15T18:41:57.748Z,21.71
2023-04-15T18:44:25.836Z,21.70
2023-04-15T18:46:53.921Z,21.68
2023-04-15T18:49:21.867Z,21.67
2023-04-15T18:51:50.065Z,21.66
2023-04-15T18:54:18.054Z,21.65
2023-04-15T18:56:45.980Z,21.64
2023-04-15T18:59:28.050Z,21.63
2023-04-15T19:01:59.758Z,21.61
2023-04-15T19:04:29.479Z,21.60
2023-04-15T19:06:59.366Z,21.60
2023-04-15T19:09:28.553Z,21.58
2023-04-15T19:11:57.079Z,21.58
2023-04-15T19:14:25.120Z,21.57
2023-04-15T19:16:53.425Z,21.56
2023-04-15T19:19:21.586Z,21.55
2023-04-15T19:21:50.287Z,21.54
2023-04-15T19:24:18.946Z,21.53
2023-04-15T19:26:51.012Z,21.52
2023-04-15T19:29:19.082Z,21.50
2023-04-15T19:31:47.251Z,21.49
2023-04-15T19:34:15.433Z,21.48
2023-04-15T19:36:43.388Z,21.47
2023-04-15T19:39:11.570Z,21.46
2023-04-15T19:41:39.468Z,21.45
2023-04-15T19:44:07.476Z,21.44
2023-04-15T19:46:35.806Z,21.43
2023-04-15T19:49:04.275Z,21.43
2023-04-15T19:51:32.746Z,21.41
2023-04-15T19:54:00.842Z,21.40
2023-04-15T19:56:29.514Z,21.40
2023-04-15T19:58:57.776Z,21.38
2023-04-15T20:01:25.809Z,21.37
2023-04-15T20:03:54.805Z,21.36
2023-04-15T20:06:23.132Z,21.33
2023-04-15T20:08:51.912Z,21.35
2023-04-15T20:11:20.310Z,21.34
2023-04-15T20:13:48.376Z,21.33
2023-04-15T20:16:16.928Z,21.33
2023-04-15T20:18:44.950Z,21.31
2023-04-15T20:21:13.193Z,21.30
2023-04-15T20:23:41.262Z,21.29
2023-04-15T20:26:09.391Z,21.29
2023-04-15T20:28:37.409Z,21.28
2023-04-15T20:31:05.492Z,21.27
2023-04-15T20:33:33.569Z,21.26
2023-04-15T20:36:01.715Z,21.26
2023-04-15T20:38:29.898Z,21.25
2023-04-15T20:40:58.376Z,21.23
2023-04-15T20:43:26.346Z,21.22
2023-04-15T20:45:56.572Z,21.21
2023-04-15T20:48:25.173Z,21.21
2023-04-15T20:50:53.326Z,21.19
2023-04-15T20:53:21.501Z,21.18
2023-04-15T20:55:49.787Z,21.17
2023-04-15T20:58:17.968Z,21.16
2023-04-15T21:00:46.660Z,21.15
2023-04-15T21:03:15.062Z,21.14
2023-04-15T21:05:43.175Z,21.13
2023-04-15T21:08:11.170Z,21.11
2023-04-15T21:10:40.361Z,21.11
2023-04-15T21:13:08.433Z,21.10
2023-04-15T21:15:36.625Z,21.07
2023-04-15T21:18:04.516Z,21.06
2023-04-15T21:20:32.967Z,21.05
2023-04-15T21:23:01.031Z,21.04
2023-04-15T21:25:29.211Z,21.04
2023-04-15T21:27:57.255Z,21.03
2023-04-15T21:30:25.645Z,21.02
2023-04-15T21:32:53.691Z,21.01
2023-04-15T21:35:21.703Z,21.00
2023-04-15T21:37:49.768Z,20.99
2023-04-15T21:40:19.588Z,20.98
2023-04-15T21:42:49.190Z,20.97
2023-04-15T21:45:17.568Z,20.96
2023-04-15T21:48:00.898Z,20.95
2023-04-15T21:50:33.776Z,20.94
2023-04-15T21:53:02.114Z,20.91
2023-04-15T21:55:30.137Z,20.90
2023-04-15T21:57:58.302Z,20.90
2023-04-15T22:00:26.385Z,20.89
2023-04-15T22:02:54.774Z,20.87
2023-04-15T22:05:22.928Z,20.85
2023-04-15T22:07:51.153Z,20.84
2023-04-15T22:10:21.019Z,20.83
2023-04-15T22:12:49.189Z,20.82
2023-04-15T22:15:17.256Z,20.81
2023-04-15T22:17:45.576Z,20.80
2023-04-15T22:20:13.917Z,20.78
2023-04-15T22:22:44.173Z,20.77
2023-04-15T22:25:13.045Z,20.76
2023-04-15T22:27:41.021Z,20.74
2023-04-15T22:30:10.191Z,20.73
2023-04-15T22:32:38.394Z,20.72
2023-04-15T22:35:07.365Z,20.71
2023-04-15T22:37:35.544Z,20.69
2023-04-15T22:40:04.336Z,20.68
2023-04-15T22:42:32.409Z,20.67
2023-04-15T22:45:00.879Z,20.66
2023-04-15T22:47:28.989Z,20.65
2023-04-15T22:49:57.337Z,20.65
2023-04-15T22:52:30.590Z,20.64
2023-04-15T22:54:59.627Z,20.62
2023-04-15T22:57:28.512Z,20.61
2023-04-15T22:59:56.575Z,20.60
2023-04-15T23:02:24.948Z,20.59
2023-04-15T23:04:53.315Z,20.58
2023-04-15T23:07:21.514Z,20.56
2023-04-15T23:09:49.453Z,20.55
2023-04-15T23:12:17.449Z,20.54
2023-04-15T23:14:45.415Z,20.53
2023-04-15T23:17:13.598Z,20.52
2023-04-15T23:19:41.765Z,20.51
2023-04-15T23:22:12.164Z,20.50
2023-04-15T23:24:40.169Z,20.48
2023-04-15T23:27:08.297Z,20.47
2023-04-15T23:29:36.582Z,20.46
2023-04-15T23:32:05.136Z,20.46
2023-04-15T23:34:33.253Z,20.45
2023-04-15T23:37:01.342Z,20.43
2023-04-15T23:39:30.745Z,20.42
2023-04-15T23:41:58.687Z,20.41
2023-04-15T23:44:27.193Z,20.40
2023-04-15T23:46:55.283Z,20.39
2023-04-15T23:49:23.381Z,20.38
2023-04-15T23:51:51.489Z,20.37
2023-04-15T23:54:19.685Z,20.36
2023-04-15T23:56:48.385Z,20.35
2023-04-15T23:59:16.326Z,20.34
